Hacienda La Monserrate, Puerto Rico
Current Conditions -  °F | °C
As of 8:30 AM on Thursday 27 Nov 2014 (Local Time) from TJBQ Reporting Station
Clear Clear  
Wind Chill: 79°   Ceiling: Unl
Heat Index: 81°   Visibility: 10mi
Dew Point: 68°   Wind: 12mph
Humidity: 69%   Direction: 100°E
Pressure: 30.03"   Gusts: 18mph
Location:  18.2205°N, 66.6046°W
Report Text: TJBQ 271230Z 10010G16KT 10SM SKC 26/20 A3003 RMK RWY 08 ATIS Z
Loading
Personal Weather Stations






























Interactive Weather Map New forecast layout! Learn more

10-Day Weather Forecast

Advertisements
Track Severe Weather on mobile